Terminal Aerodrome Forecast
Issued by NWS

Home | Current Version | Previous Version | Text Only | Print | Product List | Glossary On
Versions: 1 2 3 4 5 6 7 8 9 10 11 12
000
FTUS43 KEAX 250500
TAFSTJ
TAF
KSTJ 250520Z 2506/2606 VRB05KT P6SM SKC
     FM251000 15008KT P6SM FEW040 SCT100
     FM251600 16013KT P6SM OVC060
     FM252200 17011KT P6SM VCSH OVC035
     FM260000 35016G25KT P6SM -SN OVC030=

USA.gov is the U.S. government's official web portal to all federal, state and local government web resources and services.